This is the latest recevied weather packets stored in our database for station/object K1BES. If no packets are shown the sender has not sent any weather packets the latest 10 day(s).
| Time | Temp. | Humidity | Pressure | Rain* | Wind** | Luminosity | Snow |
|---|---|---|---|---|---|---|---|
| 1778171617 | 30° C | 71% | 1019 hPa | 0 mm | - | 1024 W/m² | - |
| 1778171313 | 30° C | 71% | 1018.9 hPa | 0 mm | - | 1013 W/m² | - |
| 1778171009 | 30° C | 70% | 1018.9 hPa | 0 mm | - | 1009 W/m² | - |
| 1778170706 | 30° C | 71% | 1018.9 hPa | 0 mm | - | 1004 W/m² | - |
| 1778170403 | 29.44° C | 74% | 1019 hPa | 0 mm | - | 992 W/m² | - |
| 1778170099 | 30° C | 71% | 1019.2 hPa | 0 mm | - | 983 W/m² | - |
| 1778169795 | 30° C | 72% | 1019.2 hPa | 0 mm | - | 972 W/m² | - |
| 1778169491 | 29.44° C | 72% | 1018.8 hPa | 0 mm | - | 961 W/m² | - |
| 1778169188 | 29.44° C | 72% | 1019.2 hPa | 0 mm | - | 951 W/m² | - |
| 1778168884 | 29.44° C | 72% | 1018.9 hPa | 0 mm | - | 937 W/m² | - |
| 1778168582 | 29.44° C | 72% | 1019 hPa | 0 mm | - | 926 W/m² | - |
| 1778168278 | 29.44° C | 72% | 1019 hPa | 0 mm | - | 912 W/m² | - |
| 1778167974 | 30° C | 72% | 1018.9 hPa | 0 mm | - | 901 W/m² | - |
| 1778167671 | 30° C | 72% | 1019 hPa | 0 mm | - | 886 W/m² | - |
| 1778167368 | 28.89° C | 74% | 1019 hPa | 0 mm | - | 873 W/m² | - |
| 1778167063 | 28.89° C | 75% | 1018.9 hPa | 0 mm | - | 853 W/m² | - |
| 1778166760 | 28.89° C | 73% | 1019.1 hPa | 0 mm | - | 843 W/m² | - |
| 1778166457 | 29.44° C | 74% | 1019 hPa | 0 mm | - | 823 W/m² | - |
| 1778166154 | 28.89° C | 75% | 1019.1 hPa | 0 mm | - | 809 W/m² | - |
| 1778165850 | 29.44° C | 74% | 1019.1 hPa | 0 mm | - | 792 W/m² | - |
| 1778165546 | 29.44° C | 74% | 1019 hPa | 0 mm | - | 727 W/m² | - |
| 1778165244 | 29.44° C | 74% | 1019.1 hPa | 0 mm | - | 758 W/m² | - |
| 1778164941 | 28.89° C | 75% | 1019 hPa | 0 mm | - | 739 W/m² | - |
| 1778164638 | 28.89° C | 74% | 1018.9 hPa | 0 mm | - | 721 W/m² | - |
| 1778164335 | 28.33° C | 77% | 1018.9 hPa | 0 mm | - | 702 W/m² | - |
* Rain latest hour (hover to see other rain measurements)
** Current wind speed in m/s (hover to see current wind gust speed)